Main page
Satellite images 15-day forecastsClimateMarine weather Cyclones Lightning AirportsFAQ Newsletter About
Weather : Europe Africa North America South America Asia Australia-Oceania Others
Languages Contact

Cologne, Germany

Flughafen Köln/Bonn

latitude: 50-52N, longitude: 007-10E, elevation: 91 m


METAR: EDDK 262050Z 13007KT 9999 FEW013 BKN019 05/03 Q1014 NOSIG
TAF: EDDK 261700Z 2618/2724 12008KT 9999 BKN020 TEMPO 2712/2718 4000 RA

Time: 22:08 (21:08 UTC)

Current weather observation

The report was made 18 minutes ago, at 20:50 UTC
Wind 7 kt from the Southeast
Temperature 5°C
Humidity 87%
Pressure 1014 hPa
Visibility 10 km or more
Few clouds at a height of 1300 ft
Broken clouds at a height of 1900 ft

Change units

Forecast

The report was made 4 hours and 8 minutes ago, at 17:00 UTC
Forecast valid from 26 at 18 UTC to 27 at 24 UTC
Wind 8 kt from the East/Southeast
Visibility 10 km or more
Broken clouds at a height of 2000 ft
Temporary
from 27 at 12 UTC to 27 at 18 UTC
Visibility: 4000 m
rain
The information on this site is subject to a disclaimer
Weather : Europe Africa North America South America Asia Australia-Oceania Others
Satellite images 15-day forecastsClimateMarine weather Cyclones Lightning AirportsFAQ Languages Contact Newsletter About